Flight Track Log - Related Links

Times and Time Zones

All times are in EDT time to prevent confusion due to time zone crossing. See the N96928 flight status page for this flight to view local times or setup timezone preferences in your user account.

Time Position Orientation Groundspeed Altitude Reporting Facility
EDT Latitude Longitude Course Direction KTS MPH feet Rate Location/Type
Sat 09:01:23 PM 41.0000 -72.4167 270° West 67 77 3,500  Level New York TRACON
Sat 09:02:23 PM 41.0000 -72.4333 270° West 66 76 4,000 500 Climbing New York TRACON
Sat 09:03:23 PM 41.0000 -72.4667 270° West 67 77 4,500 450 Climbing New York TRACON
Sat 09:04:23 PM 41.0167 -72.4833 323° Northwest 70 81 4,900 400 Climbing New York TRACON
Sat 09:05:23 PM 41.0167 -72.5167 270° West 71 82 5,300 400 Climbing New York TRACON
Sat 09:06:23 PM 41.0167 -72.5333 270° West 75 86 5,700 400 Climbing New York TRACON
Sat 09:07:23 PM 41.0333 -72.5667 304° West 77 89 6,100 400 Climbing New York TRACON
Sat 09:08:23 PM 41.0333 -72.5833 270° West 77 89 6,500 350 Climbing New York TRACON
Sat 09:09:23 PM 41.0500 -72.6167 304° West 79 91 6,800 238 Climbing New York TRACON
Sat 09:10:29 PM 41.0500 -72.6500 270° West 91 105 7,000 100 Climbing New York TRACON
Sat 09:11:23 PM 41.0500 -72.6833 270° West 104 120 7,000  Level New York TRACON
Sat 09:12:23 PM 41.0833 -72.7167 323° Northwest 108 124 7,000 -50 Level New York TRACON
Sat 09:13:23 PM 41.1000 -72.7333 323° Northwest 109 125 6,900 -50 Descending New York TRACON
Sat 09:14:23 PM 41.1167 -72.7667 304° West 107 123 6,900  Level New York TRACON
Sat 09:15:23 PM 41.1333 -72.8000 304° West 111 128 6,900  Level New York TRACON
Sat 09:16:23 PM 41.1667 -72.8167 339° North 109 125 6,900  Level New York TRACON
Sat 09:17:23 PM 41.1833 -72.8500 304° West 114 131 6,900  Level New York TRACON
Sat 09:18:23 PM 41.2000 -72.8833 304° West 108 124 6,900  Level New York TRACON
Sat 09:19:23 PM 41.2333 -72.9167 323° Northwest 112 129 6,900  Level New York TRACON
Sat 09:20:23 PM 41.2500 -72.9333 323° Northwest 110 127 6,900 50 Level New York TRACON
Sat 09:21:23 PM 41.2667 -72.9667 304° West 114 131 7,000  Climbing New York TRACON
Sat 09:22:23 PM 41.3000 -73.0000 323° Northwest 115 132 6,900  Descending New York TRACON
Sat 09:25:08 PM 41.3544 -73.0789 313° West 110 127 7,000 27 Climbing Boston Center
Sat 09:26:08 PM 41.3753 -73.1039 318° Northwest 117 135 7,000  Level Boston Center
Sat 09:27:08 PM 41.3978 -73.1347 314° West 117 135 7,000 -50 Level Boston Center
Sat 09:28:08 PM 41.4164 -73.1625 312° West 112 129 6,900  Descending Boston Center
Sat 09:29:08 PM 41.4414 -73.1933 317° Northwest 112 129 7,000  Climbing Boston Center
Sat 09:30:08 PM 41.4600 -73.2156 318° Northwest 112 129 6,900 -50 Descending Boston Center
Sat 09:31:08 PM 41.4867 -73.2519 314° West 117 135 6,900  Level Boston Center
Sat 09:32:08 PM 41.5053 -73.2744 318° Northwest 117 135 6,900  Level Boston Center
Sat 09:33:08 PM 41.5364 -73.2886 341° North 107 123 6,900 -100 Level Boston Center
Sat 09:34:08 PM 41.5636 -73.3003 342° North 107 123 6,700 -450 Descending Boston Center
Sat 09:35:08 PM 41.6050 -73.3203 340° North 131 151 6,000 -400 Descending Boston Center
Sat 09:36:08 PM 41.6361 -73.3317 345° North 147 169 5,900 -100 Descending Boston Center
Sat 09:38:00 PM 41.6926 -73.3533 344° North  Level FlightAware Approximate
Sat 09:45:00 PM 41.8995 -73.4391 263° West  Level FlightAware Approximate
Sat 09:46:00 PM 41.8959 -73.4811 263° West  Level FlightAware Approximate
Sat 09:47:00 PM 41.8923 -73.5230 263° West  Level FlightAware Approximate
Sat 09:48:00 PM 41.8887 -73.5650 263° West  Level FlightAware Approximate
Sat 09:49:00 PM 41.8851 -73.6070 263° West  Level FlightAware Approximate
Sat 09:50:00 PM 41.8814 -73.6489 263° West  Level FlightAware Approximate
Sat 09:51:00 PM 41.8778 -73.6909 263° West  Level FlightAware Approximate
Sat 09:52:00 PM 41.8741 -73.7328 263° West  Level FlightAware Approximate
Sat 09:53:00 PM 41.8704 -73.7748 263° West  Level FlightAware Approximate
Sat 09:54:00 PM 41.8666 -73.8167 200° South  Level FlightAware Approximate
Sat 09:55:00 PM 41.8371 -73.8314 200° South  Level FlightAware Approximate
Sat 09:56:00 PM 41.8092 -73.8506 208° Southwest  Level FlightAware Approximate
Sat 09:57:00 PM 41.7814 -73.8705 208° Southwest  Level FlightAware Approximate
Sat 09:58:00 PM 41.7536 -73.8903 208° Southwest  Level FlightAware Approximate
Sat 09:59:00 PM 41.7259 -73.9101 208° Southwest  Level FlightAware Approximate
Sat 10:00:00 PM 41.7090 -73.9385 206° Southwest  Level FlightAware Approximate
Sat 10:01:00 PM 41.6808 -73.9572 206° Southwest  Level FlightAware Approximate
Sat 10:02:00 PM 41.6535 -73.9780 213° Southwest  Level FlightAware Approximate
Sat 10:03:00 PM 41.6270 -74.0007 213° Southwest  Level FlightAware Approximate
Sat 10:04:00 PM 41.6006 -74.0234 213° Southwest  Level FlightAware Approximate
Sat 10:05:00 PM 41.5741 -74.0461 213° Southwest  Level FlightAware Approximate
Sat 10:06:00 PM 41.5474 -74.0684 207° Southwest  Level FlightAware Approximate
Sat 10:07:00 PM 41.5193 -74.0872 207° Southwest  Level FlightAware Approximate
Sat 10:08:00 PM 41.5000 -74.1000 207° Southwest  Level FlightAware Approximate
Sat 10:09:00 PM 41.5041 -74.1048 207° Southwest  Level Estimated
Sat 10:10:00 PM 41.5000 -74.1000 207° Southwest  Level FlightAware Approximate
Sat 10:11:00 PM 41.5041 -74.1048 207° Southwest  Level Estimated
Sat 10:12:00 PM 41.5000 -74.1000 207° Southwest  Level FlightAware Approximate
Sat 10:13:00 PM 41.5041 -74.1048 207° Southwest  Level Estimated
Sat 10:14:00 PM 41.5000 -74.1000 207° Southwest  Level FlightAware Approximate
Sat 10:15:00 PM 41.5041 -74.1048 207° Southwest  Level Estimated
Sat 10:16:00 PM 41.5000 -74.1000 207° Southwest  Level FlightAware Approximate
Sat 10:17:00 PM 41.5041 -74.1048 207° Southwest  Level Estimated
Sat 10:18:00 PM 41.5000 -74.1000 207° Southwest  Level FlightAware Approximate
Sat 10:19:00 PM 41.5041 -74.1048 207° Southwest  Level Estimated
Sat 10:20:00 PM 41.5000 -74.1000 207° Southwest  Level FlightAware Approximate
Sat 10:21:00 PM 41.5041 -74.1048 207° Southwest  Level Estimated
Sat 10:22:00 PM 41.5000 -74.1000 207° Southwest  Level FlightAware Approximate
Sat 10:23:00 PM 41.5041 -74.1048 207° Southwest  Level Estimated

Login

Don't have an account? Register now (free) for customized features, flight alerts, and more!